createdAt,value
2023-05-10T00:01:18.801Z,1.02
2023-05-10T00:03:46.545Z,0.63
2023-05-10T00:06:14.273Z,0.60
2023-05-10T00:08:41.951Z,0.65
2023-05-10T00:11:09.701Z,0.80
2023-05-10T00:13:38.936Z,0.85
2023-05-10T00:16:07.084Z,0.63
2023-05-10T00:18:34.744Z,0.82
2023-05-10T00:21:02.418Z,0.45
2023-05-10T00:23:30.087Z,0.60
2023-05-10T00:25:58.011Z,1.15
2023-05-10T00:28:25.835Z,0.82
2023-05-10T00:30:54.872Z,0.90
2023-05-10T00:33:22.526Z,0.70
2023-05-10T00:35:50.264Z,0.90
2023-05-10T00:38:17.895Z,0.55
2023-05-10T00:40:45.896Z,0.63
2023-05-10T00:43:21.350Z,1.05
2023-05-10T00:45:49.216Z,1.05
2023-05-10T00:48:18.401Z,0.45
2023-05-10T00:50:46.434Z,1.13
2023-05-10T00:53:14.120Z,0.80
2023-05-10T00:55:41.851Z,0.38
2023-05-10T00:58:09.510Z,1.05
2023-05-10T01:00:38.371Z,0.55
2023-05-10T01:03:06.416Z,1.30
2023-05-10T01:05:35.679Z,0.73
2023-05-10T01:08:03.594Z,0.65
2023-05-10T01:10:31.816Z,0.60
2023-05-10T01:13:01.367Z,1.02
2023-05-10T01:15:29.201Z,1.33
2023-05-10T01:17:57.814Z,0.50
2023-05-10T01:20:26.108Z,0.82
2023-05-10T01:23:08.896Z,1.20
2023-05-10T01:25:50.711Z,1.00
2023-05-10T01:28:33.863Z,1.38
2023-05-10T01:31:19.464Z,1.13
2023-05-10T01:33:54.286Z,1.40
2023-05-10T01:36:27.170Z,0.80
2023-05-10T01:38:59.320Z,0.85
2023-05-10T01:41:30.052Z,1.52
2023-05-10T01:43:59.544Z,0.85
2023-05-10T01:46:30.800Z,0.70
2023-05-10T01:49:00.964Z,0.60
2023-05-10T01:51:38.642Z,1.10
2023-05-10T01:54:07.386Z,1.00
2023-05-10T01:56:36.388Z,1.00
2023-05-10T01:59:07.832Z,0.63
2023-05-10T02:01:35.675Z,0.73
2023-05-10T02:04:05.089Z,1.17
2023-05-10T02:06:33.554Z,1.13
2023-05-10T02:09:02.572Z,0.47
2023-05-10T02:11:31.812Z,1.17
2023-05-10T02:14:00.121Z,0.55
2023-05-10T02:16:31.757Z,1.00
2023-05-10T02:19:01.658Z,0.90
2023-05-10T02:21:31.795Z,0.98
2023-05-10T02:23:59.941Z,1.15
2023-05-10T02:26:31.048Z,0.93
2023-05-10T02:28:59.310Z,0.88
2023-05-10T02:31:27.599Z,1.25
2023-05-10T02:33:55.738Z,0.82
2023-05-10T02:36:24.337Z,0.70
2023-05-10T02:38:53.898Z,0.75
2023-05-10T02:41:23.483Z,0.63
2023-05-10T02:43:52.852Z,0.90
2023-05-10T02:46:20.743Z,0.50
2023-05-10T02:48:48.499Z,0.95
2023-05-10T02:51:18.844Z,0.75
2023-05-10T02:53:47.959Z,0.90
2023-05-10T02:56:22.229Z,1.98
2023-05-10T02:58:49.918Z,0.95
2023-05-10T03:01:17.703Z,1.02
2023-05-10T03:03:45.685Z,0.90
2023-05-10T03:06:13.509Z,1.00
2023-05-10T03:08:41.408Z,0.70
2023-05-10T03:11:23.080Z,0.55
2023-05-10T03:13:57.478Z,1.55
2023-05-10T03:16:29.302Z,0.90
2023-05-10T03:18:58.575Z,1.55
2023-05-10T03:21:27.981Z,0.93
2023-05-10T03:23:59.806Z,1.25
2023-05-10T03:26:29.366Z,0.63
2023-05-10T03:29:19.316Z,1.65
2023-05-10T03:31:47.222Z,2.08
2023-05-10T03:34:16.494Z,1.20
2023-05-10T03:36:44.223Z,1.13
2023-05-10T03:39:12.261Z,1.30
2023-05-10T03:41:41.335Z,2.63
2023-05-10T03:44:10.453Z,2.47
2023-05-10T03:46:38.159Z,1.15
2023-05-10T03:49:05.974Z,1.65
2023-05-10T03:51:33.749Z,1.85
2023-05-10T03:54:01.581Z,2.13
2023-05-10T03:56:29.324Z,2.20
2023-05-10T03:58:58.367Z,2.17
2023-05-10T04:01:26.507Z,1.13
2023-05-10T04:03:54.398Z,0.95
2023-05-10T04:06:22.147Z,1.70
2023-05-10T04:08:49.874Z,1.60
2023-05-10T04:11:17.771Z,0.50
2023-05-10T04:13:45.425Z,1.60
2023-05-10T04:16:14.462Z,1.45
2023-05-10T04:18:42.143Z,1.30
2023-05-10T04:21:13.395Z,2.13
2023-05-10T04:23:41.055Z,1.70
2023-05-10T04:26:08.780Z,1.58
2023-05-10T04:28:36.465Z,1.30
2023-05-10T04:31:04.959Z,1.23
2023-05-10T04:33:34.803Z,2.22
2023-05-10T04:36:02.807Z,1.40
2023-05-10T04:38:30.850Z,1.90
2023-05-10T04:41:05.864Z,1.55
2023-05-10T04:43:33.637Z,2.30
2023-05-10T04:46:01.375Z,2.22
2023-05-10T04:48:29.100Z,2.50
2023-05-10T04:50:58.223Z,2.50
2023-05-10T04:53:25.887Z,2.42
2023-05-10T04:55:53.546Z,1.88
2023-05-10T04:58:21.286Z,1.10
2023-05-10T05:00:49.036Z,2.22
2023-05-10T05:03:16.816Z,3.33
2023-05-10T05:05:45.534Z,2.40
2023-05-10T05:08:14.870Z,2.33
2023-05-10T05:10:42.586Z,2.03
2023-05-10T05:13:10.337Z,2.45
2023-05-10T05:15:38.073Z,2.30
2023-05-10T05:18:05.983Z,2.00
2023-05-10T05:20:34.181Z,1.88
2023-05-10T05:23:01.849Z,1.42
2023-05-10T05:25:30.944Z,1.42
2023-05-10T05:27:58.636Z,1.98
2023-05-10T05:30:26.415Z,2.55
2023-05-10T05:32:54.078Z,2.30
2023-05-10T05:35:21.860Z,1.05
2023-05-10T05:37:49.532Z,1.52
2023-05-10T05:40:17.271Z,1.58
2023-05-10T05:42:46.355Z,2.00
2023-05-10T05:45:15.447Z,1.73
2023-05-10T05:47:43.334Z,1.73
2023-05-10T05:50:11.689Z,1.73
2023-05-10T05:52:39.394Z,2.17
2023-05-10T05:55:07.342Z,2.08
2023-05-10T05:57:35.021Z,1.25
2023-05-10T06:00:04.530Z,2.60
2023-05-10T06:02:40.313Z,1.75
2023-05-10T06:05:08.693Z,2.03
2023-05-10T06:07:36.361Z,2.45
2023-05-10T06:10:04.191Z,2.10
2023-05-10T06:12:31.861Z,2.13
2023-05-10T06:14:59.572Z,2.05
2023-05-10T06:17:28.656Z,2.63
2023-05-10T06:19:56.344Z,1.77
2023-05-10T06:22:24.107Z,2.35
2023-05-10T06:24:52.299Z,2.53
2023-05-10T06:27:19.974Z,2.10
2023-05-10T06:29:48.274Z,2.45
2023-05-10T06:32:16.880Z,1.33
2023-05-10T06:34:45.939Z,3.30
2023-05-10T06:37:13.617Z,2.90
2023-05-10T06:39:41.317Z,3.17
2023-05-10T06:42:09.084Z,2.75
2023-05-10T06:44:37.059Z,2.47
2023-05-10T06:47:04.794Z,2.38
2023-05-10T06:49:32.473Z,1.95
2023-05-10T06:52:01.535Z,1.17
2023-05-10T06:54:29.161Z,2.25
2023-05-10T06:56:57.058Z,1.73
2023-05-10T06:59:25.018Z,1.50
2023-05-10T07:01:52.793Z,3.15
2023-05-10T07:04:20.490Z,2.22
2023-05-10T07:06:48.304Z,3.28
2023-05-10T07:09:17.749Z,1.85
2023-05-10T07:11:45.609Z,2.20
2023-05-10T07:14:13.271Z,2.28
2023-05-10T07:16:41.021Z,2.95
2023-05-10T07:19:08.970Z,1.90
2023-05-10T07:21:37.093Z,2.58
2023-05-10T07:24:04.995Z,1.85
2023-05-10T07:26:34.033Z,1.75
2023-05-10T07:29:02.078Z,2.13
2023-05-10T07:31:29.825Z,2.28
2023-05-10T07:33:57.506Z,1.73
2023-05-10T07:36:25.281Z,2.00
2023-05-10T07:38:52.962Z,2.90
2023-05-10T07:41:21.889Z,1.63
2023-05-10T07:43:50.947Z,2.58
2023-05-10T07:46:20.364Z,1.60
2023-05-10T07:48:48.112Z,2.40
2023-05-10T07:51:15.791Z,3.38
2023-05-10T07:53:43.470Z,1.90
2023-05-10T07:56:24.387Z,3.28
2023-05-10T07:58:53.552Z,2.72
2023-05-10T08:01:21.828Z,2.10
2023-05-10T08:03:49.755Z,1.98
2023-05-10T08:06:17.471Z,1.60
2023-05-10T08:08:50.786Z,2.60
2023-05-10T08:11:18.612Z,1.73
2023-05-10T08:13:46.297Z,3.20
2023-05-10T08:16:15.429Z,1.88
2023-05-10T08:18:43.492Z,2.75
2023-05-10T08:21:12.260Z,2.05
2023-05-10T08:23:39.951Z,1.42
2023-05-10T08:26:07.639Z,2.53
2023-05-10T08:28:35.401Z,2.45
2023-05-10T08:31:03.143Z,2.63
2023-05-10T08:33:32.176Z,2.60
2023-05-10T08:35:59.851Z,2.55
2023-05-10T08:38:28.062Z,3.40
2023-05-10T08:40:57.509Z,2.90
2023-05-10T08:43:28.216Z,1.77
2023-05-10T08:45:56.356Z,2.30
2023-05-10T08:48:25.460Z,2.95
2023-05-10T08:50:56.285Z,1.98
2023-05-10T08:53:26.087Z,1.85
2023-05-10T08:55:53.837Z,1.73
2023-05-10T08:58:21.872Z,3.33
2023-05-10T09:00:50.586Z,1.67
2023-05-10T09:03:18.646Z,1.67
2023-05-10T09:05:46.903Z,2.80
2023-05-10T09:08:17.261Z,2.45
2023-05-10T09:10:45.407Z,2.20
2023-05-10T09:13:13.495Z,1.95
2023-05-10T09:15:41.160Z,1.35
2023-05-10T09:18:08.870Z,2.72
2023-05-10T09:20:36.521Z,1.73
2023-05-10T09:23:04.217Z,2.38
2023-05-10T09:25:34.232Z,3.88
2023-05-10T09:28:02.026Z,1.92
2023-05-10T09:30:30.594Z,3.17
2023-05-10T09:32:58.924Z,2.67
2023-05-10T09:35:29.624Z,3.45
2023-05-10T09:37:58.473Z,3.40
2023-05-10T09:40:27.307Z,2.10
2023-05-10T09:42:57.284Z,1.88
2023-05-10T09:45:25.331Z,3.55
2023-05-10T09:47:53.140Z,3.08
2023-05-10T09:50:21.461Z,3.05
2023-05-10T09:52:50.501Z,3.35
2023-05-10T09:55:18.415Z,3.05
2023-05-10T09:57:46.148Z,2.80
2023-05-10T10:00:18.444Z,1.88
2023-05-10T10:02:47.429Z,3.75
2023-05-10T10:05:15.451Z,2.42
2023-05-10T10:07:43.356Z,1.48
2023-05-10T10:10:13.251Z,2.03
2023-05-10T10:12:41.679Z,1.88
2023-05-10T10:15:09.996Z,2.60
2023-05-10T10:17:40.408Z,2.95
2023-05-10T10:20:11.750Z,3.72
2023-05-10T10:22:39.957Z,3.05
2023-05-10T10:25:08.192Z,2.42
2023-05-10T10:27:40.648Z,2.83
2023-05-10T10:30:14.542Z,2.63
2023-05-10T10:32:52.099Z,3.13
2023-05-10T10:35:20.031Z,3.15
2023-05-10T10:37:48.259Z,2.67
2023-05-10T10:40:25.704Z,2.80
2023-05-10T10:42:54.549Z,3.15
2023-05-10T10:45:23.380Z,2.30
2023-05-10T10:47:55.568Z,1.85
2023-05-10T10:50:23.253Z,2.50
2023-05-10T10:52:53.074Z,3.22
2023-05-10T10:55:23.416Z,2.10
2023-05-10T10:57:52.632Z,2.97
2023-05-10T11:00:30.206Z,2.92
2023-05-10T11:03:00.312Z,2.58
2023-05-10T11:05:36.347Z,1.85
2023-05-10T11:08:09.277Z,1.92
2023-05-10T11:10:36.990Z,2.45
2023-05-10T11:13:06.705Z,2.13
2023-05-10T11:15:34.568Z,1.77
2023-05-10T11:18:18.094Z,2.10
2023-05-10T11:20:47.688Z,3.00
2023-05-10T11:23:18.622Z,2.83
2023-05-10T11:25:47.226Z,2.58
2023-05-10T11:28:14.953Z,2.53
2023-05-10T11:30:43.343Z,1.27
2023-05-10T11:33:17.075Z,2.10
2023-05-10T11:35:44.768Z,2.25
2023-05-10T11:38:13.037Z,1.05
2023-05-10T11:40:41.250Z,2.42
2023-05-10T11:43:10.376Z,1.65
2023-05-10T11:45:38.461Z,2.30
2023-05-10T11:48:06.419Z,1.65
2023-05-10T11:50:35.652Z,1.83
2023-05-10T11:53:03.675Z,1.83
2023-05-10T11:55:32.335Z,1.45
2023-05-10T11:58:03.099Z,2.38
2023-05-10T12:00:31.433Z,2.53
2023-05-10T12:02:59.564Z,2.15
2023-05-10T12:05:27.464Z,2.38
2023-05-10T12:08:12.342Z,2.13
2023-05-10T12:10:40.161Z,1.45
2023-05-10T12:13:08.064Z,1.77
2023-05-10T12:15:35.702Z,1.83
2023-05-10T12:18:03.921Z,2.30
2023-05-10T12:20:31.624Z,2.03
2023-05-10T12:23:02.925Z,1.90
2023-05-10T12:25:32.105Z,2.25
2023-05-10T12:28:01.768Z,1.95
2023-05-10T12:30:29.888Z,1.73
2023-05-10T12:33:02.036Z,2.15
2023-05-10T12:35:32.343Z,2.88
2023-05-10T12:38:01.462Z,1.33
2023-05-10T12:40:29.772Z,1.63
2023-05-10T12:42:57.478Z,1.88
2023-05-10T12:45:25.173Z,1.30
2023-05-10T12:47:52.842Z,1.63
2023-05-10T12:50:20.518Z,1.80
2023-05-10T12:52:48.176Z,1.95
2023-05-10T12:55:17.262Z,2.08
2023-05-10T12:57:44.907Z,2.25
2023-05-10T13:00:13.046Z,1.83
2023-05-10T13:02:40.716Z,2.17
2023-05-10T13:05:08.908Z,1.75
2023-05-10T13:07:36.580Z,1.45
2023-05-10T13:10:04.258Z,1.80
2023-05-10T13:12:33.269Z,1.48
2023-05-10T13:15:00.960Z,1.33
2023-05-10T13:17:28.747Z,1.85
2023-05-10T13:19:56.623Z,1.13
2023-05-10T13:22:36.377Z,1.60
2023-05-10T13:25:07.529Z,2.10
2023-05-10T13:27:36.544Z,1.40
2023-05-10T13:30:04.275Z,1.52
2023-05-10T13:32:31.983Z,1.15
2023-05-10T13:34:59.630Z,1.92
2023-05-10T13:37:27.341Z,1.40
2023-05-10T13:39:54.989Z,1.60
2023-05-10T13:42:23.997Z,1.73
2023-05-10T13:44:53.422Z,1.20
2023-05-10T13:47:22.650Z,0.90
2023-05-10T13:49:50.355Z,1.50
2023-05-10T13:52:17.987Z,1.23
2023-05-10T13:54:45.712Z,1.55
2023-05-10T13:57:14.857Z,1.08
2023-05-10T13:59:42.506Z,1.30
2023-05-10T14:02:14.146Z,1.70
2023-05-10T14:04:42.208Z,1.10
2023-05-10T14:07:09.857Z,0.93
2023-05-10T14:09:37.487Z,0.55
2023-05-10T14:12:05.197Z,1.20
2023-05-10T14:14:32.927Z,1.38
2023-05-10T14:17:00.635Z,0.82
2023-05-10T14:19:31.681Z,0.90
2023-05-10T14:21:59.347Z,0.98
2023-05-10T14:24:27.066Z,1.15
2023-05-10T14:26:55.024Z,1.48
2023-05-10T14:29:22.974Z,1.00
2023-05-10T14:31:50.973Z,1.67
2023-05-10T14:34:18.718Z,0.93
2023-05-10T14:36:47.757Z,0.63
2023-05-10T14:39:15.431Z,0.82
2023-05-10T14:41:44.020Z,0.80
2023-05-10T14:44:12.041Z,1.40
2023-05-10T14:46:40.468Z,0.93
2023-05-10T14:49:08.182Z,1.42
2023-05-10T14:51:37.717Z,1.20
2023-05-10T14:54:06.856Z,1.33
2023-05-10T14:56:34.536Z,1.45
2023-05-10T14:59:02.209Z,1.67
2023-05-10T15:01:30.410Z,0.98
2023-05-10T15:03:58.804Z,1.48
2023-05-10T15:06:32.466Z,1.75
2023-05-10T15:09:00.116Z,1.20
2023-05-10T15:11:29.958Z,1.38
2023-05-10T15:13:57.638Z,1.20
2023-05-10T15:16:25.748Z,1.15
2023-05-10T15:18:53.519Z,1.02
2023-05-10T15:21:21.290Z,1.58
2023-05-10T15:23:49.064Z,0.85
2023-05-10T15:26:16.810Z,0.77
2023-05-10T15:28:45.964Z,0.93
2023-05-10T15:31:13.707Z,0.50
2023-05-10T15:33:43.679Z,0.95
2023-05-10T15:36:11.403Z,0.95
2023-05-10T15:38:39.051Z,0.88
2023-05-10T15:41:06.750Z,0.68
2023-05-10T15:43:34.430Z,0.90
2023-05-10T15:46:03.660Z,0.68
2023-05-10T15:48:32.343Z,1.10
2023-05-10T15:51:00.080Z,0.75
2023-05-10T15:53:27.754Z,0.30
2023-05-10T15:55:55.762Z,0.85
2023-05-10T15:58:23.482Z,0.80
2023-05-10T16:00:51.248Z,0.82
2023-05-10T16:03:20.319Z,0.80
2023-05-10T16:05:48.071Z,0.35
2023-05-10T16:08:16.021Z,1.08
2023-05-10T16:10:43.701Z,0.60
2023-05-10T16:13:11.577Z,0.43
2023-05-10T16:15:39.678Z,0.60
2023-05-10T16:18:07.472Z,0.60
2023-05-10T16:20:36.527Z,0.60
2023-05-10T16:23:05.135Z,0.70
2023-05-10T16:25:32.882Z,0.50
2023-05-10T16:28:00.842Z,0.70
2023-05-10T16:30:30.383Z,0.43
2023-05-10T16:32:58.067Z,0.75
2023-05-10T16:35:26.275Z,0.30
2023-05-10T16:37:55.325Z,0.30
2023-05-10T16:40:23.911Z,0.70
2023-05-10T16:42:51.734Z,0.60
2023-05-10T16:45:19.597Z,0.80
2023-05-10T16:47:47.389Z,0.65
2023-05-10T16:50:15.961Z,0.55
2023-05-10T16:52:44.052Z,0.70
2023-05-10T16:55:13.115Z,0.32
2023-05-10T16:57:40.772Z,0.95
2023-05-10T17:00:08.976Z,0.38
2023-05-10T17:02:36.768Z,0.88
2023-05-10T17:05:04.644Z,0.95
2023-05-10T17:07:32.329Z,0.70
2023-05-10T17:10:00.187Z,0.73
2023-05-10T17:12:29.330Z,0.88
2023-05-10T17:14:57.348Z,0.50
2023-05-10T17:17:25.244Z,0.57
2023-05-10T17:19:52.917Z,0.30
2023-05-10T17:22:20.597Z,0.50
2023-05-10T17:24:48.288Z,0.57
2023-05-10T17:27:16.317Z,0.90
2023-05-10T17:29:45.633Z,0.90
2023-05-10T17:32:13.304Z,0.73
2023-05-10T17:34:41.026Z,0.50
2023-05-10T17:37:09.906Z,0.77
2023-05-10T17:39:39.337Z,0.63
2023-05-10T17:42:07.755Z,0.55
2023-05-10T17:44:35.413Z,0.68
2023-05-10T17:47:04.467Z,1.40
2023-05-10T17:49:32.104Z,0.90
2023-05-10T17:51:59.751Z,0.63
2023-05-10T17:54:27.488Z,0.43
2023-05-10T17:56:55.187Z,0.57
2023-05-10T17:59:22.811Z,0.55
2023-05-10T18:01:50.500Z,1.02
2023-05-10T18:04:19.551Z,0.40
2023-05-10T18:06:47.289Z,0.60
2023-05-10T18:09:16.121Z,0.63
2023-05-10T18:11:43.794Z,0.60
2023-05-10T18:14:11.425Z,0.45
2023-05-10T18:16:39.165Z,0.70
2023-05-10T18:19:06.970Z,1.00
2023-05-10T18:21:36.129Z,0.35
2023-05-10T18:24:04.043Z,0.45
2023-05-10T18:26:31.806Z,1.13
2023-05-10T18:29:01.626Z,1.08
2023-05-10T18:31:29.452Z,1.27
2023-05-10T18:33:57.116Z,0.50
2023-05-10T18:36:24.840Z,1.10
2023-05-10T18:38:53.889Z,1.02
2023-05-10T18:41:21.647Z,0.85
2023-05-10T18:43:49.275Z,0.88
2023-05-10T18:46:17.022Z,0.85
2023-05-10T18:48:44.699Z,1.10
2023-05-10T18:51:12.505Z,1.08
2023-05-10T18:53:40.185Z,1.00
2023-05-10T18:56:09.342Z,0.88
2023-05-10T18:58:36.981Z,0.80
2023-05-10T19:01:04.613Z,0.77
2023-05-10T19:03:32.260Z,1.00
2023-05-10T19:06:00.338Z,0.65
2023-05-10T19:08:28.033Z,1.02
2023-05-10T19:10:55.860Z,0.40
2023-05-10T19:13:27.278Z,0.50
2023-05-10T19:16:04.495Z,0.73
2023-05-10T19:18:33.204Z,1.13
2023-05-10T19:21:04.454Z,0.32
2023-05-10T19:23:32.872Z,0.70
2023-05-10T19:26:01.102Z,1.15
2023-05-10T19:28:30.580Z,0.75
2023-05-10T19:30:58.536Z,1.05
2023-05-10T19:33:26.235Z,0.30
2023-05-10T19:35:54.332Z,0.82
2023-05-10T19:38:22.552Z,1.15
2023-05-10T19:40:50.894Z,0.60
2023-05-10T19:43:18.677Z,0.43
2023-05-10T19:45:47.740Z,0.43
2023-05-10T19:48:15.395Z,0.57
2023-05-10T19:50:43.065Z,0.30
2023-05-10T19:53:10.750Z,0.85
2023-05-10T19:55:38.518Z,0.77
2023-05-10T19:58:06.551Z,0.63
2023-05-10T20:00:34.248Z,0.57
2023-05-10T20:03:06.345Z,0.40
2023-05-10T20:05:35.409Z,0.52
2023-05-10T20:08:03.110Z,0.30
2023-05-10T20:10:30.827Z,0.68
2023-05-10T20:12:59.057Z,1.33
2023-05-10T20:15:27.846Z,0.80
2023-05-10T20:17:55.563Z,0.93
2023-05-10T20:20:24.650Z,0.90
2023-05-10T20:22:52.410Z,0.77
2023-05-10T20:25:20.116Z,0.90
2023-05-10T20:27:50.082Z,0.40
2023-05-10T20:30:18.647Z,0.55
2023-05-10T20:32:46.540Z,0.28
2023-05-10T20:35:14.238Z,0.77
2023-05-10T20:37:43.276Z,0.30
2023-05-10T20:40:11.283Z,0.73
2023-05-10T20:42:39.010Z,0.85
2023-05-10T20:45:07.246Z,0.82
2023-05-10T20:47:35.020Z,0.60
2023-05-10T20:50:02.731Z,1.48
2023-05-10T20:52:30.379Z,0.82
2023-05-10T20:54:59.414Z,0.38
2023-05-10T20:57:27.083Z,0.88
2023-05-10T20:59:54.786Z,0.50
2023-05-10T21:02:22.502Z,0.50
2023-05-10T21:04:50.295Z,0.65
2023-05-10T21:07:18.089Z,0.57
2023-05-10T21:09:45.788Z,0.43
2023-05-10T21:12:14.864Z,0.68
2023-05-10T21:14:43.030Z,0.82
2023-05-10T21:17:10.713Z,0.80
2023-05-10T21:19:38.372Z,0.93
2023-05-10T21:22:06.104Z,0.60
2023-05-10T21:24:35.062Z,0.60
2023-05-10T21:27:02.781Z,0.50
2023-05-10T21:29:31.845Z,0.57
2023-05-10T21:31:59.570Z,0.50
2023-05-10T21:34:27.267Z,0.70
2023-05-10T21:36:55.307Z,1.00
2023-05-10T21:39:23.003Z,1.10
2023-05-10T21:41:50.717Z,1.15
2023-05-10T21:44:18.371Z,0.77
2023-05-10T21:46:47.426Z,0.57
2023-05-10T21:49:15.324Z,0.75
2023-05-10T21:51:42.990Z,0.70
2023-05-10T21:54:10.655Z,0.45
2023-05-10T21:56:38.347Z,0.70
2023-05-10T21:59:06.261Z,0.70
2023-05-10T22:01:33.992Z,1.30
2023-05-10T22:04:03.095Z,0.57
2023-05-10T22:06:30.759Z,0.82
2023-05-10T22:08:58.450Z,0.90
2023-05-10T22:11:26.140Z,0.77
2023-05-10T22:13:53.768Z,0.88
2023-05-10T22:16:21.484Z,0.93
2023-05-10T22:18:49.226Z,0.55
2023-05-10T22:21:18.297Z,0.60
2023-05-10T22:23:45.962Z,1.25
2023-05-10T22:26:13.656Z,1.02
2023-05-10T22:28:41.550Z,0.77
2023-05-10T22:31:10.392Z,0.70
2023-05-10T22:33:38.091Z,1.00
2023-05-10T22:36:06.195Z,0.30
2023-05-10T22:38:35.319Z,0.88
2023-05-10T22:41:03.006Z,1.02
2023-05-10T22:43:30.681Z,0.52
2023-05-10T22:45:58.586Z,0.60
2023-05-10T22:48:26.255Z,1.02
2023-05-10T22:50:53.913Z,1.35
2023-05-10T22:53:21.635Z,0.60
2023-05-10T22:55:50.680Z,0.55
2023-05-10T22:58:18.548Z,0.90
2023-05-10T23:00:46.261Z,0.70
2023-05-10T23:03:14.649Z,1.15
2023-05-10T23:05:42.313Z,1.05
2023-05-10T23:08:09.973Z,0.47
2023-05-10T23:10:38.361Z,0.88
2023-05-10T23:13:07.862Z,0.63
2023-05-10T23:15:36.184Z,1.02
2023-05-10T23:18:05.779Z,0.82
2023-05-10T23:20:33.819Z,0.70
2023-05-10T23:23:01.500Z,0.40
2023-05-10T23:25:29.124Z,1.00
2023-05-10T23:27:56.891Z,0.40
2023-05-10T23:30:25.909Z,0.90
2023-05-10T23:32:53.642Z,0.50
2023-05-10T23:35:21.323Z,0.55
2023-05-10T23:37:49.642Z,0.43
2023-05-10T23:40:17.728Z,0.80
2023-05-10T23:42:45.651Z,0.93
2023-05-10T23:45:13.311Z,1.02
2023-05-10T23:47:42.778Z,0.82
2023-05-10T23:50:11.074Z,0.63
2023-05-10T23:52:38.731Z,0.60
2023-05-10T23:55:06.928Z,0.60
2023-05-10T23:57:34.608Z,0.80
